createdAt,value
2022-08-09T00:04:06.221Z,17.42
2022-08-09T00:09:17.744Z,17.38
2022-08-09T00:14:30.576Z,17.29
2022-08-09T00:19:40.391Z,17.17
2022-08-09T00:24:42.084Z,17.06
2022-08-09T00:30:25.232Z,16.92
2022-08-09T00:35:06.589Z,16.75
2022-08-09T00:40:16.939Z,16.75
2022-08-09T00:45:20.165Z,16.66
2022-08-09T00:50:25.709Z,16.58
2022-08-09T00:56:02.947Z,16.52
2022-08-09T01:00:54.556Z,16.44
2022-08-09T01:06:17.752Z,16.43
2022-08-09T01:11:42.333Z,16.39
2022-08-09T01:17:01.594Z,16.36
2022-08-09T01:22:16.418Z,16.34
2022-08-09T01:27:18.526Z,16.24
2022-08-09T01:32:39.172Z,16.17
2022-08-09T01:38:05.883Z,16.01
2022-08-09T01:43:03.906Z,15.88
2022-08-09T01:48:06.319Z,15.88
2022-08-09T01:53:19.800Z,15.82
2022-08-09T01:58:24.313Z,15.76
2022-08-09T02:03:26.224Z,15.77
2022-08-09T02:08:40.511Z,15.66
2022-08-09T02:13:55.296Z,15.67
2022-08-09T02:19:09.202Z,15.65
2022-08-09T02:24:12.354Z,15.71
2022-08-09T02:29:31.299Z,15.64
2022-08-09T02:34:41.245Z,15.52
2022-08-09T02:40:01.513Z,15.52
2022-08-09T02:45:07.077Z,15.48
2022-08-09T02:50:13.533Z,15.58
2022-08-09T02:55:20.237Z,15.60
2022-08-09T03:00:26.063Z,15.45
2022-08-09T03:05:28.636Z,15.38
2022-08-09T03:10:30.371Z,15.29
2022-08-09T03:15:40.496Z,15.38
2022-08-09T03:20:53.851Z,15.26
2022-08-09T03:25:58.582Z,15.26
2022-08-09T03:31:10.220Z,15.11
2022-08-09T03:36:27.805Z,15.06
2022-08-09T03:41:45.844Z,15.03
2022-08-09T03:46:50.526Z,14.98
2022-08-09T03:51:56.728Z,15.04
2022-08-09T03:57:04.565Z,15.06
2022-08-09T04:02:26.926Z,14.92
2022-08-09T04:07:47.284Z,14.87
2022-08-09T04:12:52.280Z,14.76
2022-08-09T04:17:57.474Z,14.77
2022-08-09T04:22:59.588Z,14.67
2022-08-09T04:28:02.631Z,14.67
2022-08-09T04:33:05.530Z,14.64
2022-08-09T04:38:09.524Z,14.60
2022-08-09T04:43:11.195Z,14.58
2022-08-09T04:48:15.496Z,14.77
2022-08-09T04:53:17.228Z,15.02
2022-08-09T04:58:18.941Z,15.19
2022-08-09T05:03:39.898Z,15.27
2022-08-09T05:08:44.053Z,15.56
2022-08-09T05:13:49.703Z,15.59
2022-08-09T05:18:59.269Z,15.77
2022-08-09T05:24:04.071Z,15.74
2022-08-09T05:29:06.622Z,15.68
2022-08-09T05:34:08.273Z,15.75
2022-08-09T05:39:28.562Z,15.89
2022-08-09T05:44:32.905Z,16.11
2022-08-09T05:50:23.941Z,16.20
2022-08-09T05:54:58.122Z,16.44
2022-08-09T06:00:09.023Z,16.66
2022-08-09T06:05:13.801Z,16.78
2022-08-09T06:10:15.655Z,16.94
2022-08-09T06:15:17.671Z,17.13
2022-08-09T06:20:19.433Z,17.24
2022-08-09T06:25:21.359Z,17.46
2022-08-09T06:30:23.160Z,17.58
2022-08-09T06:35:56.059Z,17.64
2022-08-09T06:40:46.512Z,17.76
2022-08-09T06:46:08.100Z,17.90
2022-08-09T06:51:10.952Z,18.08
2022-08-09T06:56:13.416Z,18.18
2022-08-09T07:01:16.344Z,18.33
2022-08-09T07:06:18.685Z,18.44
2022-08-09T07:11:23.466Z,18.53
2022-08-09T07:16:41.231Z,18.60
2022-08-09T07:21:55.844Z,18.71
2022-08-09T07:27:01.207Z,18.88
2022-08-09T07:32:03.551Z,19.04
2022-08-09T07:37:05.304Z,19.21
2022-08-09T07:42:17.401Z,19.48
2022-08-09T07:47:19.468Z,19.67
2022-08-09T07:52:29.813Z,19.83
2022-08-09T07:57:36.117Z,19.97
2022-08-09T08:02:42.257Z,20.19
2022-08-09T08:08:43.659Z,20.39
2022-08-09T08:13:06.307Z,20.53
2022-08-09T08:18:12.198Z,20.74
2022-08-09T08:23:18.552Z,20.80
2022-08-09T08:28:32.163Z,20.93
2022-08-09T08:33:49.589Z,21.04
2022-08-09T08:38:54.991Z,21.14
2022-08-09T08:44:02.523Z,21.27
2022-08-09T08:49:07.122Z,21.32
2022-08-09T08:54:20.403Z,21.35
2022-08-09T08:59:22.517Z,21.52
2022-08-09T09:04:33.177Z,21.66
2022-08-09T09:10:02.378Z,21.78
2022-08-09T09:15:07.018Z,21.93
2022-08-09T09:20:15.249Z,21.98
2022-08-09T09:26:04.292Z,22.10
2022-08-09T09:30:57.508Z,22.30
2022-08-09T09:36:06.239Z,22.46
2022-08-09T09:41:33.488Z,22.61
2022-08-09T09:46:51.729Z,22.90
2022-08-09T09:52:16.564Z,22.97
2022-08-09T09:58:03.317Z,23.08
2022-08-09T10:02:52.760Z,23.06
2022-08-09T10:08:25.951Z,23.13
2022-08-09T10:13:45.297Z,23.19
2022-08-09T10:18:54.436Z,23.27
2022-08-09T10:23:57.878Z,23.40
2022-08-09T10:29:35.922Z,23.54
2022-08-09T10:34:33.110Z,23.77
2022-08-09T10:39:40.888Z,23.94
2022-08-09T10:45:02.176Z,24.02
2022-08-09T10:50:57.428Z,24.14
2022-08-09T10:56:23.984Z,24.43
2022-08-09T11:03:14.429Z,24.72
2022-08-09T11:07:01.425Z,24.69
2022-08-09T11:12:12.146Z,25.01
2022-08-09T11:17:13.840Z,25.38
2022-08-09T11:22:21.557Z,25.86
2022-08-09T11:28:04.100Z,25.66
2022-08-09T11:33:19.209Z,25.84
2022-08-09T11:38:32.047Z,25.74
2022-08-09T11:43:34.844Z,25.85
2022-08-09T11:48:54.382Z,26.15
2022-08-09T11:54:13.131Z,26.22
2022-08-09T11:59:30.414Z,26.91
2022-08-09T12:04:37.976Z,27.34
2022-08-09T12:09:39.908Z,27.98
2022-08-09T12:15:08.299Z,28.76
2022-08-09T12:20:16.662Z,29.13
2022-08-09T12:25:36.492Z,28.79
2022-08-09T12:30:39.606Z,29.03
2022-08-09T12:35:42.898Z,29.46
2022-08-09T12:40:51.928Z,29.89
2022-08-09T12:46:00.007Z,30.53
2022-08-09T12:51:03.938Z,30.96
2022-08-09T12:56:43.409Z,31.29
2022-08-09T13:01:46.851Z,30.59
2022-08-09T13:06:51.084Z,29.99
2022-08-09T13:12:01.673Z,30.24
2022-08-09T13:17:05.206Z,30.91
2022-08-09T13:22:36.905Z,30.43
2022-08-09T13:27:54.318Z,29.95
2022-08-09T13:32:57.976Z,30.14
2022-08-09T13:38:00.226Z,30.11
2022-08-09T13:43:05.256Z,30.94
2022-08-09T13:48:11.360Z,31.79
2022-08-09T13:53:16.675Z,32.07
2022-08-09T13:58:18.398Z,32.20
2022-08-09T14:04:01.388Z,32.36
2022-08-09T14:08:43.353Z,33.08
2022-08-09T14:14:24.563Z,32.96
2022-08-09T14:19:07.199Z,33.59
2022-08-09T14:24:22.153Z,34.33
2022-08-09T14:30:35.124Z,34.56
2022-08-09T14:34:55.675Z,34.58
2022-08-09T14:39:58.567Z,35.05
2022-08-09T14:46:58.196Z,35.21
2022-08-09T14:50:23.494Z,34.91
2022-08-09T14:55:29.194Z,34.85
2022-08-09T15:00:36.123Z,34.80
2022-08-09T15:05:38.490Z,35.14
2022-08-09T15:10:41.319Z,35.52
2022-08-09T15:15:43.747Z,35.71
2022-08-09T15:22:00.632Z,35.87
2022-08-09T15:26:18.559Z,35.65
2022-08-09T15:31:41.659Z,35.26
2022-08-09T15:36:48.101Z,35.45
2022-08-09T15:41:50.815Z,35.60
2022-08-09T15:46:52.587Z,35.86
2022-08-09T15:52:03.580Z,35.52
2022-08-09T15:57:08.564Z,35.24
2022-08-09T16:02:13.420Z,35.60
2022-08-09T16:07:15.269Z,35.56
2022-08-09T16:12:17.869Z,35.66
2022-08-09T16:17:20.252Z,34.82
2022-08-09T16:22:24.234Z,34.66
2022-08-09T16:27:29.812Z,34.52
2022-08-09T16:32:53.285Z,34.64
2022-08-09T16:37:56.882Z,34.66
2022-08-09T16:43:02.254Z,34.59
2022-08-09T16:48:39.725Z,34.35
2022-08-09T16:53:33.828Z,33.66
2022-08-09T16:58:36.889Z,33.35
2022-08-09T17:03:38.839Z,33.31
2022-08-09T17:09:01.835Z,33.21
2022-08-09T17:14:05.247Z,33.21
2022-08-09T17:19:06.966Z,32.89
2022-08-09T17:24:27.071Z,32.63
2022-08-09T17:29:38.084Z,32.23
2022-08-09T17:35:07.697Z,31.94
2022-08-09T17:40:06.040Z,31.54
2022-08-09T17:45:37.565Z,31.34
2022-08-09T17:50:41.132Z,31.07
2022-08-09T17:56:03.390Z,30.85
2022-08-09T18:01:08.483Z,30.57
2022-08-09T18:06:14.838Z,30.21
2022-08-09T18:12:04.835Z,29.96
2022-08-09T18:16:56.365Z,29.58
2022-08-09T18:21:58.100Z,29.35
2022-08-09T18:27:03.609Z,29.02
2022-08-09T18:32:08.978Z,28.68
2022-08-09T18:37:48.819Z,28.24
2022-08-09T18:42:33.290Z,27.95
2022-08-09T18:47:37.631Z,27.59
2022-08-09T18:52:39.763Z,27.23
2022-08-09T18:57:45.436Z,26.75
2022-08-09T19:02:48.762Z,26.28
2022-08-09T19:08:04.854Z,25.87
2022-08-09T19:13:19.994Z,25.50
2022-08-09T19:18:33.926Z,25.26
2022-08-09T19:24:37.174Z,24.97
2022-08-09T19:29:15.468Z,24.65
2022-08-09T19:34:22.950Z,24.38
2022-08-09T19:39:43.569Z,24.17
2022-08-09T19:44:51.470Z,23.87
2022-08-09T19:50:09.569Z,23.66
2022-08-09T19:55:17.098Z,23.43
2022-08-09T20:00:21.301Z,23.15
2022-08-09T20:05:23.893Z,22.94
2022-08-09T20:10:33.995Z,22.86
2022-08-09T20:16:37.772Z,22.73
2022-08-09T20:20:58.703Z,22.57
2022-08-09T20:26:03.719Z,22.43
2022-08-09T20:31:09.183Z,22.23
2022-08-09T20:36:11.231Z,22.05
2022-08-09T20:41:12.972Z,21.88
2022-08-09T20:46:33.264Z,21.69
2022-08-09T20:51:41.320Z,21.58
2022-08-09T20:56:47.064Z,21.42
2022-08-09T21:01:51.599Z,21.23
2022-08-09T21:06:55.610Z,21.09
2022-08-09T21:18:21.742Z,20.86
2022-08-09T21:22:38.532Z,20.82
2022-08-09T21:27:51.246Z,20.80
2022-08-09T21:32:54.927Z,20.71
2022-08-09T21:38:00.360Z,20.62
2022-08-09T21:43:04.169Z,20.50
2022-08-09T21:48:07.932Z,20.57
2022-08-09T21:53:15.741Z,20.50
2022-08-09T21:58:31.429Z,20.34
2022-08-09T22:03:33.154Z,20.33
2022-08-09T22:08:38.474Z,20.21
2022-08-09T22:13:46.018Z,20.13
2022-08-09T22:18:54.583Z,20.09
2022-08-09T22:24:01.516Z,19.94
2022-08-09T22:29:07.205Z,19.87
2022-08-09T22:34:14.783Z,19.78
2022-08-09T22:39:47.242Z,19.69
2022-08-09T22:44:38.676Z,19.64
2022-08-09T22:49:47.496Z,19.64
2022-08-09T22:54:53.945Z,19.54
2022-08-09T22:59:59.337Z,19.48
2022-08-09T23:05:01.253Z,19.47
2022-08-09T23:10:07.859Z,19.33
2022-08-09T23:15:10.023Z,19.18
2022-08-09T23:20:11.865Z,19.12
2022-08-09T23:25:13.574Z,19.04
2022-08-09T23:30:15.330Z,18.93
2022-08-09T23:35:17.056Z,18.88
2022-08-09T23:40:18.762Z,18.81
2022-08-09T23:45:38.283Z,18.79
2022-08-09T23:50:40.331Z,18.76
2022-08-09T23:55:49.196Z,18.73
